»·PEaware :: N826GA KSFO-KLAX

N826GA :: KSFO-KLAX

FLIGHT INFORMATION

Flight Status: Arrived
Operator: Privately registered:
United States
More flights under this callsign
Pilot: Alfredo R. (12181)
Aircraft: Unknown
(HA4T)
More flights by this aircraft type
Origin: KSFO San Francisco Intl
United States
Destination: KLAX Los Angeles Intl
United States
More flights between these airports :: More routes between these airports
Route: +WESLA4 EBAYE BURGL BAYST CLIFFY BAYST1
File this flight plan on PilotEdge
Remarks:
Altitude:
(Current/Filed)
350ft
Speed:
(Current/Filed)
425kts
Departed: 25-Sep-20 05:46 PM
Arrived: 25-Sep-20 06:44 PM
Distance/Time
Traveled:
294nm/0:58
Distance/Time
To Go:
Arrived

Flight Plot

Page will automatically refresh every two minutes.

Flight plan parsing failed; only flown route is shown


Map Options




Map Legend


Flown Route
Filed Route
Departure Airport
Arrival Airport
Navaid (VOR, NDB)
Fix

Horizontal Profiles

Position Reports

Time Latitude Longitude Heading Altitude Ground
Speed
25-Sep-20 17:00 37.627663 -122.384187 294 19ft 0kts
25-Sep-20 17:01 37.627663 -122.384187 294 19ft 0kts
25-Sep-20 17:02 37.627663 -122.384187 294 19ft 0kts
25-Sep-20 17:03 37.627663 -122.384187 294 19ft 0kts
25-Sep-20 17:04 37.627663 -122.384187 294 19ft 0kts
25-Sep-20 17:05 37.627663 -122.384187 294 19ft 0kts
25-Sep-20 17:06 37.627663 -122.384187 294 19ft 0kts
25-Sep-20 17:07 37.627663 -122.384187 294 19ft 0kts
25-Sep-20 17:08 37.627663 -122.384187 294 19ft 0kts
25-Sep-20 17:09 37.627663 -122.384187 294 19ft 0kts
25-Sep-20 17:10 37.627663 -122.384187 294 19ft 0kts
25-Sep-20 17:11 37.627663 -122.384187 294 19ft 0kts
25-Sep-20 17:12 37.627663 -122.384187 294 19ft 0kts
25-Sep-20 17:13 37.627663 -122.384187 294 19ft 0kts
25-Sep-20 17:13 37.627663 -122.384187 294 19ft 0kts
25-Sep-20 17:14 37.627663 -122.384187 294 19ft 0kts
25-Sep-20 17:16 37.627663 -122.384187 294 19ft 0kts
25-Sep-20 17:16 37.627663 -122.384187 294 19ft 0kts
25-Sep-20 17:17 37.627663 -122.384187 294 19ft 0kts
25-Sep-20 17:19 37.627663 -122.384187 294 19ft 0kts
25-Sep-20 17:19 37.627663 -122.384187 294 19ft 0kts
25-Sep-20 17:20 37.627663 -122.384187 294 19ft 0kts
25-Sep-20 17:21 37.627663 -122.384187 294 19ft 0kts
25-Sep-20 17:22 37.627663 -122.384187 294 19ft 0kts
25-Sep-20 17:23 37.627663 -122.384187 294 19ft 0kts
25-Sep-20 17:24 37.627663 -122.384187 294 19ft 0kts
25-Sep-20 17:25 37.627663 -122.384187 294 19ft 0kts
25-Sep-20 17:26 37.627663 -122.384187 294 19ft 0kts
25-Sep-20 17:27 37.627663 -122.384187 294 19ft 0kts
25-Sep-20 17:28 37.627663 -122.384187 294 19ft 0kts
25-Sep-20 17:29 37.627663 -122.384187 294 19ft 0kts
25-Sep-20 17:30 37.627663 -122.384187 294 19ft 0kts
25-Sep-20 17:31 37.627663 -122.384187 294 19ft 0kts
25-Sep-20 17:32 37.627663 -122.384187 294 19ft 0kts
25-Sep-20 17:33 37.627663 -122.384187 294 19ft 0kts
25-Sep-20 17:34 37.627663 -122.384187 294 19ft 0kts
25-Sep-20 17:35 37.627663 -122.384187 294 19ft 0kts
25-Sep-20 17:36 37.627675 -122.384749 251 19ft 8kts
25-Sep-20 17:37 37.625489 -122.381956 118 19ft 20kts
25-Sep-20 17:38 37.623249 -122.376601 117 19ft 18kts
25-Sep-20 17:39 37.622399 -122.374575 118 19ft 0kts
25-Sep-20 17:40 37.621220 -122.371757 118 19ft 23kts
25-Sep-20 17:41 37.618556 -122.365420 118 19ft 17kts
25-Sep-20 17:42 37.615621 -122.358411 118 19ft 21kts
25-Sep-20 17:43 37.614516 -122.356754 188 19ft 0kts
25-Sep-20 17:44 37.614496 -122.356758 188 19ft 0kts
25-Sep-20 17:45 37.616115 -122.363298 298 19ft 94kts
25-Sep-20 17:46 37.640215 -122.427127 297 2890ft 224kts
25-Sep-20 17:47 37.640492 -122.497043 216 5308ft 260kts
25-Sep-20 17:48 37.587935 -122.455277 105 7831ft 272kts
25-Sep-20 17:49 37.531392 -122.386181 137 10396ft 309kts
25-Sep-20 17:50 37.470384 -122.310081 136 12871ft 319kts
25-Sep-20 17:51 37.406672 -122.229739 136 15368ft 370kts
25-Sep-20 17:52 37.333191 -122.137187 137 17881ft 381kts
25-Sep-20 17:53 37.256845 -122.041387 137 19066ft 388kts
25-Sep-20 17:54 37.180104 -121.945374 136 20737ft 395kts
25-Sep-20 17:55 37.100324 -121.845842 136 23754ft 416kts
25-Sep-20 17:56 37.016664 -121.741836 136 26771ft 436kts
25-Sep-20 17:57 36.928300 -121.632317 136 29814ft 457kts
25-Sep-20 17:58 36.837848 -121.520614 136 32778ft 479kts
25-Sep-20 17:59 36.741164 -121.401646 135 35097ft 498kts
25-Sep-20 18:00 36.652128 -121.292466 136 35115ft 494kts
25-Sep-20 18:01 36.550808 -121.168714 135 35856ft 501kts
25-Sep-20 18:02 36.450530 -121.046684 135 37023ft 513kts
25-Sep-20 18:03 36.348597 -120.923104 135 37076ft 513kts
25-Sep-20 18:04 36.246534 -120.799868 135 37000ft 513kts
25-Sep-20 18:05 36.145414 -120.678211 135 37010ft 507kts
25-Sep-20 18:06 36.043912 -120.556596 135 37021ft 507kts
25-Sep-20 18:07 35.942721 -120.435795 135 37019ft 507kts
25-Sep-20 18:08 35.845986 -120.320730 135 37016ft 507kts
25-Sep-20 18:09 35.750612 -120.207704 135 37017ft 505kts
25-Sep-20 18:10 35.642787 -120.090277 147 37007ft 459kts
25-Sep-20 18:11 35.533713 -120.007945 147 37018ft 463kts
25-Sep-20 18:12 35.426215 -119.927138 147 37004ft 445kts
25-Sep-20 18:13 35.320304 -119.847774 147 37023ft 445kts
25-Sep-20 18:14 35.219630 -119.759506 141 37024ft 445kts
25-Sep-20 18:15 35.121887 -119.668259 141 37017ft 443kts
25-Sep-20 18:16 35.025915 -119.578958 141 35263ft 431kts
25-Sep-20 18:17 34.929811 -119.489813 141 33279ft 435kts
25-Sep-20 18:18 34.832156 -119.401905 142 31283ft 439kts
25-Sep-20 18:19 34.732853 -119.313517 143 29273ft 443kts
25-Sep-20 18:20 34.634402 -119.227655 143 27303ft 444kts
25-Sep-20 18:21 34.533754 -119.140138 143 25307ft 438kts
25-Sep-20 18:22 34.441910 -119.058956 143 23270ft 401kts
25-Sep-20 18:23 34.352112 -118.981131 143 21208ft 390kts
25-Sep-20 18:24 34.266672 -118.904003 142 18998ft 377kts
25-Sep-20 18:25 34.186730 -118.830713 141 16761ft 325kts
25-Sep-20 18:26 34.119345 -118.761062 136 14529ft 304kts
25-Sep-20 18:27 34.056586 -118.692878 137 12311ft 299kts
25-Sep-20 18:28 34.024594 -118.606679 95 10099ft 291kts
25-Sep-20 18:29 34.015212 -118.510364 95 9036ft 287kts
25-Sep-20 18:30 34.017104 -118.417528 77 8445ft 283kts
25-Sep-20 18:31 34.029372 -118.337582 82 7618ft 245kts
25-Sep-20 18:32 34.037869 -118.263985 82 6795ft 243kts
25-Sep-20 18:33 34.047281 -118.185952 81 6007ft 238kts
25-Sep-20 18:34 34.056601 -118.106870 81 5977ft 239kts
25-Sep-20 18:35 34.034202 -118.040662 182 5737ft 235kts
25-Sep-20 18:36 33.991717 -118.087560 231 4910ft 206kts
25-Sep-20 18:37 33.961595 -118.143817 263 4002ft 197kts
25-Sep-20 18:38 33.955314 -118.206783 263 3060ft 180kts
25-Sep-20 18:39 33.950047 -118.258843 263 2199ft 143kts
25-Sep-20 18:40 33.945301 -118.305469 262 1430ft 139kts
25-Sep-20 18:41 33.940616 -118.351227 262 685ft 136kts
25-Sep-20 18:42 33.936132 -118.394640 264 131ft 90kts
25-Sep-20 18:43 33.934775 -118.401950 205 131ft 6kts
25-Sep-20 18:44 33.934695 -118.396747 83 131ft 22kts
25-Sep-20 18:45 33.933799 -118.393525 180 131ft 7kts
25-Sep-20 18:46 33.933585 -118.393510 172 131ft 0kts
25-Sep-20 18:47 33.933585 -118.393510 172 131ft 0kts
25-Sep-20 18:48 33.933585 -118.393510 172 131ft 0kts
25-Sep-20 18:49 33.933585 -118.393510 172 131ft 0kts
25-Sep-20 18:50 33.933585 -118.393510 172 131ft 0kts
25-Sep-20 18:52 33.933585 -118.393510 172 131ft 0kts
25-Sep-20 18:53 33.933585 -118.393510 172 131ft 0kts

Navigation Log

Ident Type
Flight plan parsing failed, navigation log unavailable